createdAt,value
2022-07-28T00:00:10.222Z,4.00
2022-07-28T00:01:10.154Z,4.00
2022-07-28T00:02:10.178Z,4.00
2022-07-28T00:03:10.162Z,4.00
2022-07-28T00:04:10.206Z,0.00
2022-07-28T00:05:09.882Z,4.00
2022-07-28T00:06:10.057Z,4.00
2022-07-28T00:07:09.858Z,4.00
2022-07-28T00:08:09.692Z,4.00
2022-07-28T00:09:09.602Z,4.00
2022-07-28T00:10:09.586Z,4.00
2022-07-28T00:11:09.578Z,4.00
2022-07-28T00:12:09.480Z,4.00
2022-07-28T00:13:09.485Z,4.00
2022-07-28T00:14:09.384Z,0.00
2022-07-28T00:15:09.300Z,4.00
2022-07-28T00:16:09.309Z,4.00
2022-07-28T00:17:09.208Z,0.00
2022-07-28T00:18:09.148Z,4.00
2022-07-28T00:19:09.026Z,4.00
2022-07-28T00:20:08.952Z,4.00
2022-07-28T00:21:08.945Z,4.00
2022-07-28T00:22:08.845Z,4.00
2022-07-28T00:23:08.769Z,4.00
2022-07-28T00:24:08.748Z,4.00
2022-07-28T00:25:08.743Z,4.00
2022-07-28T00:26:08.583Z,4.00
2022-07-28T00:27:08.562Z,4.00
2022-07-28T00:28:08.457Z,4.00
2022-07-28T00:29:08.358Z,4.00
2022-07-28T00:30:08.383Z,4.00
2022-07-28T00:31:10.090Z,4.00
2022-07-28T00:32:08.281Z,4.00
2022-07-28T00:33:08.196Z,4.00
2022-07-28T00:34:08.106Z,4.00
2022-07-28T00:35:08.317Z,4.00
2022-07-28T00:36:10.274Z,4.00
2022-07-28T00:37:07.911Z,4.00
2022-07-28T00:38:07.837Z,4.00
2022-07-28T00:39:07.913Z,4.00
2022-07-28T00:40:07.767Z,4.00
2022-07-28T00:41:07.654Z,4.00
2022-07-28T00:42:07.566Z,4.00
2022-07-28T00:43:07.544Z,4.00
2022-07-28T00:44:07.468Z,4.00
2022-07-28T00:45:07.452Z,4.00
2022-07-28T00:46:07.400Z,4.00
2022-07-28T00:47:07.281Z,4.00
2022-07-28T00:48:07.266Z,4.00
2022-07-28T00:49:07.254Z,4.00
2022-07-28T00:50:07.102Z,4.00
2022-07-28T00:51:07.077Z,4.00
2022-07-28T00:52:06.985Z,4.00
2022-07-28T00:53:06.912Z,4.00
2022-07-28T00:54:06.820Z,4.00
2022-07-28T00:55:06.804Z,0.00
2022-07-28T00:56:07.144Z,0.00
2022-07-28T00:57:06.811Z,0.00
2022-07-28T00:58:06.620Z,0.00
2022-07-28T00:59:06.614Z,0.00
2022-07-28T01:00:06.524Z,0.00
2022-07-28T01:01:06.435Z,0.00
2022-07-28T01:02:06.497Z,0.00
2022-07-28T01:03:06.309Z,0.00
2022-07-28T01:04:06.251Z,0.00
2022-07-28T01:05:06.174Z,0.00
2022-07-28T01:06:06.156Z,0.00
2022-07-28T01:07:06.084Z,0.00
2022-07-28T01:08:05.995Z,0.00
2022-07-28T01:09:05.975Z,0.00
2022-07-28T01:10:05.878Z,0.00
2022-07-28T01:11:05.808Z,0.00
2022-07-28T01:12:05.798Z,0.00
2022-07-28T01:13:05.685Z,0.00
2022-07-28T01:14:05.615Z,0.00
2022-07-28T01:15:05.600Z,0.00
2022-07-28T01:16:05.585Z,0.00
2022-07-28T01:17:05.439Z,0.00
2022-07-28T01:18:05.440Z,0.00
2022-07-28T01:19:05.408Z,0.00
2022-07-28T01:20:05.226Z,0.00
2022-07-28T01:21:05.250Z,0.00
2022-07-28T01:22:05.131Z,0.00
2022-07-28T01:23:05.040Z,0.00
2022-07-28T01:24:05.044Z,0.00
2022-07-28T01:25:04.961Z,0.00
2022-07-28T01:26:04.852Z,0.00
2022-07-28T01:27:04.778Z,0.00
2022-07-28T01:28:04.757Z,0.00
2022-07-28T01:29:04.673Z,0.00
2022-07-28T01:30:04.676Z,0.00
2022-07-28T01:31:04.682Z,0.00
2022-07-28T01:32:04.495Z,0.00
2022-07-28T01:33:04.407Z,0.00
2022-07-28T01:34:04.397Z,0.00
2022-07-28T01:35:04.423Z,0.00
2022-07-28T01:36:04.220Z,0.00
2022-07-28T01:37:04.195Z,0.00
2022-07-28T01:38:04.109Z,0.00
2022-07-28T01:39:04.102Z,0.00
2022-07-28T01:40:04.017Z,0.00
2022-07-28T01:41:03.921Z,0.00
2022-07-28T01:42:03.857Z,0.00
2022-07-28T01:43:03.823Z,0.00
2022-07-28T01:44:03.827Z,0.00
2022-07-28T01:45:03.731Z,0.00
2022-07-28T01:46:03.782Z,0.00
2022-07-28T01:47:03.552Z,0.00
2022-07-28T01:48:03.477Z,0.00
2022-07-28T01:49:03.526Z,0.00
2022-07-28T01:50:03.393Z,0.00
2022-07-28T01:51:03.300Z,0.00
2022-07-28T01:52:03.277Z,0.00
2022-07-28T01:53:03.181Z,0.00
2022-07-28T01:54:03.189Z,0.00
2022-07-28T01:55:03.089Z,0.00
2022-07-28T01:56:02.990Z,0.00
2022-07-28T01:57:02.879Z,0.00
2022-07-28T01:58:02.818Z,0.00
2022-07-28T01:59:02.753Z,0.00
2022-07-28T02:00:02.692Z,0.00
2022-07-28T02:01:02.672Z,0.00
2022-07-28T02:02:02.728Z,0.00
2022-07-28T02:03:02.505Z,0.00
2022-07-28T02:04:02.443Z,0.00
2022-07-28T02:05:02.437Z,0.00
2022-07-28T02:06:02.320Z,0.00
2022-07-28T02:07:02.252Z,0.00
2022-07-28T02:08:02.191Z,0.00
2022-07-28T02:09:02.129Z,0.00
2022-07-28T02:10:02.069Z,0.00
2022-07-28T02:11:02.000Z,0.00
2022-07-28T02:12:01.940Z,0.00
2022-07-28T02:13:01.878Z,0.00
2022-07-28T02:14:01.815Z,0.00
2022-07-28T02:15:01.749Z,0.00
2022-07-28T02:16:01.733Z,0.00
2022-07-28T02:17:01.626Z,0.00
2022-07-28T02:18:01.567Z,0.00
2022-07-28T02:19:01.501Z,0.00
2022-07-28T02:20:01.441Z,0.00
2022-07-28T02:21:01.379Z,0.00
2022-07-28T02:22:01.312Z,0.00
2022-07-28T02:23:01.249Z,0.00
2022-07-28T02:24:01.188Z,0.00
2022-07-28T02:25:01.126Z,0.00
2022-07-28T02:26:01.066Z,0.00
2022-07-28T02:27:01.000Z,0.00
2022-07-28T02:28:00.938Z,0.00
2022-07-28T02:29:00.873Z,0.00
2022-07-28T02:30:00.814Z,0.00
2022-07-28T02:31:00.845Z,0.00
2022-07-28T02:32:00.694Z,0.00
2022-07-28T02:33:00.621Z,0.00
2022-07-28T02:34:12.502Z,0.00
2022-07-28T02:35:00.498Z,0.00
2022-07-28T02:36:00.449Z,0.00
2022-07-28T02:37:00.373Z,0.00
2022-07-28T02:38:00.311Z,0.00
2022-07-28T02:39:00.248Z,0.00
2022-07-28T02:40:00.834Z,0.00
2022-07-28T02:41:00.121Z,0.00
2022-07-28T02:42:00.089Z,0.00
2022-07-28T02:42:59.997Z,0.00
2022-07-28T02:43:59.945Z,0.00
2022-07-28T02:44:59.870Z,0.00
2022-07-28T02:45:59.871Z,0.00
2022-07-28T02:46:59.748Z,0.00
2022-07-28T02:47:59.685Z,4.00
2022-07-28T02:48:59.676Z,0.00
2022-07-28T02:49:59.561Z,0.00
2022-07-28T02:50:59.495Z,0.00
2022-07-28T02:51:59.450Z,4.00
2022-07-28T02:52:59.369Z,0.00
2022-07-28T02:53:59.308Z,4.00
2022-07-28T02:54:59.247Z,4.00
2022-07-28T02:55:59.186Z,4.00
2022-07-28T02:56:59.119Z,4.00
2022-07-28T02:57:59.062Z,4.00
2022-07-28T02:58:58.997Z,4.00
2022-07-28T02:59:58.948Z,4.00
2022-07-28T03:00:58.926Z,8.00
2022-07-28T03:01:58.824Z,8.00
2022-07-28T03:02:58.745Z,8.00
2022-07-28T03:03:58.681Z,8.00
2022-07-28T03:04:58.876Z,8.00
2022-07-28T03:05:58.556Z,8.00
2022-07-28T03:06:58.490Z,12.00
2022-07-28T03:07:58.432Z,12.00
2022-07-28T03:08:58.367Z,12.00
2022-07-28T03:09:58.303Z,16.00
2022-07-28T03:10:58.238Z,20.00
2022-07-28T03:11:58.178Z,20.00
2022-07-28T03:12:58.112Z,20.00
2022-07-28T03:13:58.051Z,20.00
2022-07-28T03:14:57.992Z,24.00
2022-07-28T03:15:57.927Z,28.00
2022-07-28T03:16:57.926Z,28.00
2022-07-28T03:17:57.800Z,32.00
2022-07-28T03:18:57.793Z,32.00
2022-07-28T03:19:57.676Z,36.00
2022-07-28T03:20:57.609Z,36.00
2022-07-28T03:21:57.551Z,40.00
2022-07-28T03:22:57.487Z,44.00
2022-07-28T03:23:57.425Z,48.00
2022-07-28T03:24:57.357Z,52.00
2022-07-28T03:25:57.298Z,56.00
2022-07-28T03:26:57.237Z,60.00
2022-07-28T03:27:57.176Z,64.00
2022-07-28T03:28:57.108Z,68.00
2022-07-28T03:29:59.195Z,72.00
2022-07-28T03:30:57.076Z,72.00
2022-07-28T03:31:56.922Z,80.00
2022-07-28T03:32:56.856Z,84.00
2022-07-28T03:33:56.809Z,88.00
2022-07-28T03:34:56.730Z,96.00
2022-07-28T03:35:56.669Z,100.00
2022-07-28T03:36:56.604Z,104.00
2022-07-28T03:37:56.558Z,108.00
2022-07-28T03:38:56.482Z,116.00
2022-07-28T03:39:56.417Z,120.00
2022-07-28T03:40:56.354Z,124.00
2022-07-28T03:41:56.294Z,128.00
2022-07-28T03:42:56.225Z,132.00
2022-07-28T03:43:56.171Z,140.00
2022-07-28T03:44:56.099Z,144.00
2022-07-28T03:45:56.103Z,148.00
2022-07-28T03:46:55.976Z,156.00
2022-07-28T03:47:55.916Z,164.00
2022-07-28T03:48:55.889Z,168.00
2022-07-28T03:49:55.794Z,176.00
2022-07-28T03:50:55.722Z,180.00
2022-07-28T03:51:55.662Z,184.00
2022-07-28T03:52:55.596Z,192.00
2022-07-28T03:53:55.537Z,196.00
2022-07-28T03:54:55.472Z,204.00
2022-07-28T03:55:55.410Z,208.00
2022-07-28T03:56:55.350Z,212.00
2022-07-28T03:57:55.283Z,220.00
2022-07-28T03:58:55.224Z,224.00
2022-07-28T03:59:55.163Z,232.00
2022-07-28T04:00:55.184Z,236.00
2022-07-28T04:01:55.032Z,240.00
2022-07-28T04:02:55.021Z,248.00
2022-07-28T04:03:54.910Z,252.00
2022-07-28T04:04:54.844Z,260.00
2022-07-28T04:05:54.779Z,260.00
2022-07-28T04:06:54.723Z,268.00
2022-07-28T04:07:54.660Z,276.00
2022-07-28T04:08:54.591Z,280.00
2022-07-28T04:09:54.532Z,284.00
2022-07-28T04:10:54.476Z,292.00
2022-07-28T04:11:54.414Z,296.00
2022-07-28T04:12:54.337Z,300.00
2022-07-28T04:13:54.278Z,308.00
2022-07-28T04:14:54.212Z,312.00
2022-07-28T04:15:54.157Z,316.00
2022-07-28T04:16:54.162Z,320.00
2022-07-28T04:17:54.027Z,328.00
2022-07-28T04:18:53.967Z,332.00
2022-07-28T04:19:53.902Z,340.00
2022-07-28T04:20:53.843Z,344.00
2022-07-28T04:21:53.775Z,352.00
2022-07-28T04:22:53.711Z,352.00
2022-07-28T04:23:57.238Z,360.00
2022-07-28T04:24:53.585Z,368.00
2022-07-28T04:25:53.537Z,372.00
2022-07-28T04:26:53.459Z,376.00
2022-07-28T04:27:53.396Z,380.00
2022-07-28T04:28:53.335Z,388.00
2022-07-28T04:29:53.273Z,392.00
2022-07-28T04:30:53.308Z,400.00
2022-07-28T04:31:53.145Z,404.00
2022-07-28T04:32:53.084Z,408.00
2022-07-28T04:33:53.023Z,416.00
2022-07-28T04:34:52.956Z,420.00
2022-07-28T04:35:52.959Z,428.00
2022-07-28T04:36:52.831Z,432.00
2022-07-28T04:37:52.773Z,440.00
2022-07-28T04:38:52.712Z,444.00
2022-07-28T04:39:52.646Z,452.00
2022-07-28T04:40:52.596Z,460.00
2022-07-28T04:41:52.519Z,464.00
2022-07-28T04:42:52.458Z,468.00
2022-07-28T04:43:52.392Z,476.00
2022-07-28T04:44:52.329Z,484.00
2022-07-28T04:45:53.842Z,488.00
2022-07-28T04:46:52.204Z,496.00
2022-07-28T04:47:52.143Z,500.00
2022-07-28T04:48:52.111Z,508.00
2022-07-28T04:49:52.017Z,520.00
2022-07-28T04:50:51.955Z,528.00
2022-07-28T04:51:51.897Z,540.00
2022-07-28T04:52:51.826Z,556.00
2022-07-28T04:53:51.772Z,576.00
2022-07-28T04:54:51.703Z,588.00
2022-07-28T04:55:51.769Z,600.00
2022-07-28T04:56:51.581Z,608.00
2022-07-28T04:57:51.522Z,620.00
2022-07-28T04:58:51.457Z,636.00
2022-07-28T04:59:51.397Z,656.00
2022-07-28T05:00:51.460Z,680.00
2022-07-28T05:01:51.398Z,708.00
2022-07-28T05:02:51.204Z,752.00
2022-07-28T05:03:51.147Z,800.00
2022-07-28T05:04:51.146Z,860.00
2022-07-28T05:05:53.855Z,928.00
2022-07-28T05:06:50.965Z,1016.00
2022-07-28T05:07:50.896Z,1136.00
2022-07-28T05:08:50.842Z,1264.00
2022-07-28T05:09:50.770Z,1396.00
2022-07-28T05:10:50.705Z,1544.00
2022-07-28T05:11:50.645Z,1752.00
2022-07-28T05:12:50.579Z,2044.00
2022-07-28T05:13:50.519Z,2440.00
2022-07-28T05:14:50.455Z,2948.00
2022-07-28T05:15:50.397Z,3392.00
2022-07-28T05:16:50.388Z,3728.00
2022-07-28T05:17:50.287Z,3968.00
2022-07-28T05:18:50.218Z,4088.00
2022-07-28T05:19:50.151Z,4248.00
2022-07-28T05:20:50.087Z,4304.00
2022-07-28T05:21:50.022Z,4288.00
2022-07-28T05:22:49.968Z,4396.00
2022-07-28T05:23:49.899Z,4416.00
2022-07-28T05:24:49.839Z,4404.00
2022-07-28T05:25:49.779Z,4336.00
2022-07-28T05:26:49.715Z,4160.00
2022-07-28T05:27:49.656Z,4108.00
2022-07-28T05:28:49.601Z,4492.00
2022-07-28T05:29:51.693Z,4712.00
2022-07-28T05:30:49.475Z,4768.00
2022-07-28T05:31:49.553Z,4884.00
2022-07-28T05:32:49.351Z,4928.00
2022-07-28T05:33:49.294Z,4948.00
2022-07-28T05:34:49.258Z,4948.00
2022-07-28T05:35:49.174Z,4704.00
2022-07-28T05:36:49.113Z,4504.00
2022-07-28T05:37:49.052Z,4652.00
2022-07-28T05:38:49.006Z,4736.00
2022-07-28T05:39:48.932Z,4940.00
2022-07-28T05:40:48.879Z,5056.00
2022-07-28T05:41:48.811Z,5200.00
2022-07-28T05:42:48.753Z,5280.00
2022-07-28T05:43:48.694Z,5420.00
2022-07-28T05:44:48.634Z,5472.00
2022-07-28T05:45:48.676Z,5544.00
2022-07-28T05:46:48.526Z,5584.00
2022-07-28T05:47:48.478Z,5632.00
2022-07-28T05:48:48.442Z,5688.00
2022-07-28T05:49:48.335Z,5736.00
2022-07-28T05:50:48.278Z,5780.00
2022-07-28T05:51:48.217Z,5816.00
2022-07-28T05:52:48.165Z,5872.00
2022-07-28T05:53:48.100Z,5928.00
2022-07-28T05:54:48.051Z,5948.00
2022-07-28T05:56:00.720Z,6004.00
2022-07-28T05:56:50.259Z,6040.00
2022-07-28T05:57:47.868Z,6084.00
2022-07-28T05:58:47.810Z,6132.00
2022-07-28T05:59:47.757Z,6156.00
2022-07-28T06:00:47.725Z,6164.00
2022-07-28T06:01:47.748Z,6176.00
2022-07-28T06:02:47.654Z,6220.00
2022-07-28T06:03:58.084Z,6176.00
2022-07-28T06:04:47.466Z,6180.00
2022-07-28T06:06:00.490Z,6184.00
2022-07-28T06:06:47.348Z,6128.00
2022-07-28T06:07:47.284Z,6268.00
2022-07-28T06:08:47.283Z,6260.00
2022-07-28T06:09:47.192Z,6356.00
2022-07-28T06:10:47.384Z,6328.00
2022-07-28T06:11:47.053Z,6344.00
2022-07-28T06:12:46.994Z,6508.00
2022-07-28T06:13:46.942Z,6552.00
2022-07-28T06:14:46.880Z,6608.00
2022-07-28T06:15:46.821Z,6628.00
2022-07-28T06:16:46.839Z,6692.00
2022-07-28T06:17:46.720Z,6712.00
2022-07-28T06:18:46.650Z,6728.00
2022-07-28T06:19:46.595Z,6764.00
2022-07-28T06:20:46.532Z,6828.00
2022-07-28T06:21:46.489Z,6840.00
2022-07-28T06:22:46.426Z,6776.00
2022-07-28T06:23:46.360Z,6868.00
2022-07-28T06:24:46.303Z,6836.00
2022-07-28T06:25:46.243Z,6928.00
2022-07-28T06:26:46.192Z,6972.00
2022-07-28T06:27:46.133Z,6968.00
2022-07-28T06:28:46.076Z,6876.00
2022-07-28T06:29:46.015Z,6900.00
2022-07-28T06:30:45.967Z,6920.00
2022-07-28T06:31:46.036Z,6968.00
2022-07-28T06:32:45.848Z,6956.00
2022-07-28T06:33:45.785Z,6896.00
2022-07-28T06:34:45.730Z,6644.00
2022-07-28T06:35:48.274Z,6120.00
2022-07-28T06:36:45.618Z,5548.00
2022-07-28T06:37:45.565Z,6460.00
2022-07-28T06:38:45.513Z,6732.00
2022-07-28T06:39:45.448Z,6864.00
2022-07-28T06:40:45.392Z,6292.00
2022-07-28T06:41:45.328Z,6600.00
2022-07-28T06:42:45.280Z,6672.00
2022-07-28T06:43:45.213Z,6604.00
2022-07-28T06:44:58.382Z,5704.00
2022-07-28T06:45:45.119Z,6440.00
2022-07-28T06:46:45.077Z,6168.00
2022-07-28T06:47:47.173Z,5288.00
2022-07-28T06:48:44.976Z,5564.00
2022-07-28T06:49:44.873Z,6300.00
2022-07-28T06:50:44.818Z,5716.00
2022-07-28T06:51:44.760Z,5808.00
2022-07-28T06:52:44.703Z,5248.00
2022-07-28T06:53:44.644Z,4944.00
2022-07-28T06:54:48.531Z,5752.00
2022-07-28T06:55:44.540Z,5852.00
2022-07-28T06:56:44.476Z,6176.00
2022-07-28T06:57:44.418Z,6584.00
2022-07-28T06:58:47.120Z,6400.00
2022-07-28T06:59:44.348Z,6216.00
2022-07-28T07:00:44.305Z,5764.00
2022-07-28T07:01:44.191Z,5876.00
2022-07-28T07:02:44.149Z,5968.00
2022-07-28T07:03:44.201Z,6032.00
2022-07-28T07:04:44.107Z,5972.00
2022-07-28T07:05:43.965Z,6060.00
2022-07-28T07:06:43.909Z,5928.00
2022-07-28T07:07:43.964Z,5500.00
2022-07-28T07:08:43.801Z,5464.00
2022-07-28T07:09:43.770Z,5300.00
2022-07-28T07:10:43.685Z,5312.00
2022-07-28T07:11:43.631Z,5220.00
2022-07-28T07:12:43.571Z,5496.00
2022-07-28T07:13:43.515Z,5084.00
2022-07-28T07:14:43.468Z,5644.00
2022-07-28T07:15:43.400Z,5592.00
2022-07-28T07:16:43.432Z,5844.00
2022-07-28T07:17:43.288Z,6064.00
2022-07-28T07:18:43.233Z,4176.00
2022-07-28T07:19:43.183Z,5372.00
2022-07-28T07:20:43.121Z,5668.00
2022-07-28T07:21:43.062Z,5752.00
2022-07-28T07:22:43.014Z,5884.00
2022-07-28T07:23:42.951Z,6092.00
2022-07-28T07:24:42.897Z,6272.00
2022-07-28T07:25:42.945Z,6592.00
2022-07-28T07:26:42.785Z,6764.00
2022-07-28T07:27:42.728Z,6552.00
2022-07-28T07:28:42.676Z,6512.00
2022-07-28T07:29:42.616Z,6236.00
2022-07-28T07:30:42.560Z,6500.00
2022-07-28T07:31:42.578Z,6404.00
2022-07-28T07:32:42.446Z,6560.00
2022-07-28T07:33:42.390Z,6688.00
2022-07-28T07:34:42.335Z,6752.00
2022-07-28T07:35:42.295Z,6760.00
2022-07-28T07:36:42.225Z,6844.00
2022-07-28T07:37:42.167Z,6724.00
2022-07-28T07:38:42.112Z,6008.00
2022-07-28T07:39:42.059Z,6172.00
2022-07-28T07:40:42.004Z,6112.00
2022-07-28T07:41:41.944Z,4620.00
2022-07-28T07:42:41.890Z,6544.00
2022-07-28T07:43:45.846Z,5508.00
2022-07-28T07:44:41.779Z,6532.00
2022-07-28T07:45:41.739Z,7024.00
2022-07-28T07:46:41.725Z,6896.00
2022-07-28T07:47:41.612Z,6676.00
2022-07-28T07:48:41.597Z,6796.00
2022-07-28T07:49:45.354Z,6532.00
2022-07-28T07:50:41.445Z,6508.00
2022-07-28T07:51:41.421Z,6564.00
2022-07-28T07:52:41.339Z,6444.00
2022-07-28T07:53:41.279Z,6208.00
2022-07-28T07:54:41.226Z,6060.00
2022-07-28T07:55:41.168Z,6480.00
2022-07-28T07:56:41.113Z,6380.00
2022-07-28T07:57:41.065Z,6072.00
2022-07-28T07:58:41.006Z,6084.00
2022-07-28T07:59:40.949Z,6020.00
2022-07-28T08:00:40.892Z,6148.00
2022-07-28T08:01:40.918Z,6020.00
2022-07-28T08:02:40.783Z,5904.00
2022-07-28T08:03:40.725Z,5972.00
2022-07-28T08:04:40.712Z,5548.00
2022-07-28T08:05:40.616Z,4804.00
2022-07-28T08:06:40.563Z,4744.00
2022-07-28T08:07:40.509Z,4996.00
2022-07-28T08:08:46.385Z,5176.00
2022-07-28T08:09:40.425Z,5240.00
2022-07-28T08:10:40.343Z,5076.00
2022-07-28T08:11:40.288Z,5372.00
2022-07-28T08:12:40.250Z,5136.00
2022-07-28T08:13:40.201Z,5092.00
2022-07-28T08:14:40.127Z,4588.00
2022-07-28T08:15:40.162Z,4720.00
2022-07-28T08:16:40.132Z,4768.00
2022-07-28T08:17:39.955Z,4840.00
2022-07-28T08:18:39.901Z,4880.00
2022-07-28T08:19:39.849Z,4920.00
2022-07-28T08:20:39.792Z,5080.00
2022-07-28T08:21:39.813Z,4724.00
2022-07-28T08:22:39.680Z,5216.00
2022-07-28T08:23:39.729Z,5540.00
2022-07-28T08:24:39.626Z,5524.00
2022-07-28T08:25:39.632Z,4632.00
2022-07-28T08:26:39.545Z,3964.00
2022-07-28T08:27:39.443Z,3280.00
2022-07-28T08:28:39.354Z,3468.00
2022-07-28T08:29:39.320Z,3416.00
2022-07-28T08:30:39.256Z,4336.00
2022-07-28T08:31:39.259Z,3880.00
2022-07-28T08:32:39.131Z,4548.00
2022-07-28T08:33:53.340Z,5092.00
2022-07-28T08:34:39.021Z,5424.00
2022-07-28T08:35:38.963Z,5996.00
2022-07-28T08:36:38.912Z,5912.00
2022-07-28T08:37:38.862Z,6056.00
2022-07-28T08:38:38.815Z,5252.00
2022-07-28T08:39:38.749Z,5492.00
2022-07-28T08:40:38.698Z,5280.00
2022-07-28T08:41:38.636Z,4436.00
2022-07-28T08:42:38.594Z,4304.00
2022-07-28T08:43:38.537Z,4812.00
2022-07-28T08:44:38.467Z,5668.00
2022-07-28T08:45:38.412Z,5444.00
2022-07-28T08:46:38.411Z,6632.00
2022-07-28T08:47:58.572Z,5484.00
2022-07-28T08:48:38.366Z,5584.00
2022-07-28T08:49:39.319Z,5324.00
2022-07-28T08:50:38.159Z,4140.00
2022-07-28T08:51:38.101Z,3116.00
2022-07-28T08:52:38.027Z,3248.00
2022-07-28T08:53:38.003Z,2984.00
2022-07-28T08:54:37.918Z,2828.00
2022-07-28T08:55:37.891Z,3020.00
2022-07-28T08:56:37.822Z,2536.00
2022-07-28T08:57:37.753Z,3080.00
2022-07-28T08:58:37.700Z,3144.00
2022-07-28T08:59:37.661Z,3360.00
2022-07-28T09:00:37.590Z,3284.00
2022-07-28T09:01:39.402Z,4144.00
2022-07-28T09:02:37.594Z,3440.00
2022-07-28T09:03:37.492Z,2924.00
2022-07-28T09:04:37.371Z,2948.00
2022-07-28T09:05:37.334Z,4848.00
2022-07-28T09:06:37.260Z,4472.00
2022-07-28T09:07:37.216Z,4724.00
2022-07-28T09:08:37.154Z,4044.00
2022-07-28T09:09:37.095Z,3760.00
2022-07-28T09:10:37.037Z,3696.00
2022-07-28T09:11:36.982Z,4128.00
2022-07-28T09:12:36.951Z,4040.00
2022-07-28T09:13:36.884Z,4012.00
2022-07-28T09:14:36.838Z,4140.00
2022-07-28T09:15:36.791Z,4376.00
2022-07-28T09:16:36.705Z,4392.00
2022-07-28T09:17:36.660Z,4216.00
2022-07-28T09:18:36.597Z,4356.00
2022-07-28T09:19:36.552Z,4448.00
2022-07-28T09:20:36.490Z,4292.00
2022-07-28T09:21:36.433Z,4312.00
2022-07-28T09:22:36.408Z,4776.00
2022-07-28T09:23:43.801Z,5604.00
2022-07-28T09:24:36.267Z,4364.00
2022-07-28T09:25:36.223Z,4636.00
2022-07-28T09:26:36.160Z,4088.00
2022-07-28T09:27:36.100Z,3796.00
2022-07-28T09:28:36.051Z,3900.00
2022-07-28T09:29:35.987Z,3744.00
2022-07-28T09:30:35.947Z,3528.00
2022-07-28T09:31:35.962Z,3136.00
2022-07-28T09:32:35.825Z,3656.00
2022-07-28T09:33:42.962Z,3612.00
2022-07-28T09:34:35.718Z,3372.00
2022-07-28T09:35:35.655Z,3412.00
2022-07-28T09:36:35.609Z,3380.00
2022-07-28T09:37:35.549Z,3416.00
2022-07-28T09:38:35.493Z,3604.00
2022-07-28T09:39:35.438Z,4096.00
2022-07-28T09:40:35.384Z,4060.00
2022-07-28T09:41:35.328Z,3780.00
2022-07-28T09:42:35.273Z,3084.00
2022-07-28T09:43:35.229Z,3348.00
2022-07-28T09:44:35.163Z,4128.00
2022-07-28T09:45:35.116Z,4500.00
2022-07-28T09:46:35.227Z,4500.00
2022-07-28T09:47:35.094Z,4448.00
2022-07-28T09:48:35.135Z,4712.00
2022-07-28T09:49:34.929Z,4656.00
2022-07-28T09:50:34.835Z,4876.00
2022-07-28T09:51:34.775Z,4640.00
2022-07-28T09:52:34.723Z,4772.00
2022-07-28T09:53:34.666Z,4724.00
2022-07-28T09:54:40.242Z,5164.00
2022-07-28T09:55:34.572Z,5320.00
2022-07-28T09:56:34.501Z,5160.00
2022-07-28T09:57:36.842Z,5084.00
2022-07-28T09:58:34.393Z,4864.00
2022-07-28T09:59:34.344Z,4240.00
2022-07-28T10:00:34.293Z,4044.00
2022-07-28T10:01:36.594Z,4048.00
2022-07-28T10:02:34.214Z,4616.00
2022-07-28T10:03:34.119Z,4668.00
2022-07-28T10:04:34.079Z,4768.00
2022-07-28T10:05:34.011Z,4560.00
2022-07-28T10:06:33.955Z,4500.00
2022-07-28T10:07:33.902Z,4552.00
2022-07-28T10:08:33.848Z,4376.00
2022-07-28T10:09:33.790Z,4372.00
2022-07-28T10:10:33.738Z,4276.00
2022-07-28T10:11:37.694Z,3948.00
2022-07-28T10:12:33.626Z,3800.00
2022-07-28T10:13:33.574Z,3800.00
2022-07-28T10:14:33.518Z,4080.00
2022-07-28T10:15:33.604Z,4000.00
2022-07-28T10:16:33.481Z,4004.00
2022-07-28T10:17:33.388Z,4088.00
2022-07-28T10:18:33.302Z,3964.00
2022-07-28T10:19:33.247Z,3500.00
2022-07-28T10:20:33.190Z,3772.00
2022-07-28T10:21:33.139Z,3680.00
2022-07-28T10:22:33.195Z,3640.00
2022-07-28T10:23:33.030Z,3768.00
2022-07-28T10:24:32.974Z,3792.00
2022-07-28T10:25:32.932Z,3740.00
2022-07-28T10:26:32.866Z,3732.00
2022-07-28T10:27:32.815Z,3596.00
2022-07-28T10:28:32.756Z,3488.00
2022-07-28T10:29:32.704Z,3208.00
2022-07-28T10:30:32.697Z,3036.00
2022-07-28T10:31:32.673Z,2768.00
2022-07-28T10:32:32.541Z,2748.00
2022-07-28T10:33:32.499Z,2804.00
2022-07-28T10:34:32.433Z,2776.00
2022-07-28T10:35:32.379Z,2736.00
2022-07-28T10:36:32.327Z,2716.00
2022-07-28T10:37:32.269Z,2768.00
2022-07-28T10:38:32.216Z,2756.00
2022-07-28T10:39:32.161Z,2688.00
2022-07-28T10:40:32.105Z,2556.00
2022-07-28T10:41:32.053Z,2712.00
2022-07-28T10:42:32.022Z,2680.00
2022-07-28T10:43:31.948Z,2780.00
2022-07-28T10:44:31.888Z,2984.00
2022-07-28T10:45:54.973Z,2968.00
2022-07-28T10:46:31.845Z,3188.00
2022-07-28T10:47:32.520Z,3292.00
2022-07-28T10:48:31.671Z,3136.00
2022-07-28T10:49:32.707Z,3140.00
2022-07-28T10:50:31.562Z,3140.00
2022-07-28T10:51:31.508Z,3284.00
2022-07-28T10:52:46.685Z,3304.00
2022-07-28T10:53:31.398Z,3304.00
2022-07-28T10:54:31.341Z,3356.00
2022-07-28T10:55:32.039Z,3332.00
2022-07-28T10:56:31.232Z,3336.00
2022-07-28T10:57:31.178Z,3244.00
2022-07-28T10:58:31.124Z,3340.00
2022-07-28T10:59:31.069Z,3224.00
2022-07-28T11:00:46.715Z,3072.00
2022-07-28T11:01:47.731Z,3024.00
2022-07-28T11:02:31.017Z,2940.00
2022-07-28T11:03:30.950Z,2932.00
2022-07-28T11:04:30.799Z,2868.00
2022-07-28T11:05:30.744Z,2772.00
2022-07-28T11:06:30.697Z,2768.00
2022-07-28T11:07:30.664Z,2544.00
2022-07-28T11:08:30.577Z,2632.00
2022-07-28T11:09:30.649Z,2656.00
2022-07-28T11:10:30.518Z,3084.00
2022-07-28T11:11:30.458Z,3200.00
2022-07-28T11:12:30.432Z,3376.00
2022-07-28T11:13:30.371Z,3452.00
2022-07-28T11:14:30.338Z,3460.00
2022-07-28T11:15:32.268Z,3504.00
2022-07-28T11:16:35.781Z,3452.00
2022-07-28T11:17:33.596Z,3280.00
2022-07-28T11:18:30.094Z,2516.00
2022-07-28T11:19:36.668Z,3344.00
2022-07-28T11:20:30.165Z,3264.00
2022-07-28T11:21:30.970Z,3248.00
2022-07-28T11:22:32.023Z,3168.00
2022-07-28T11:23:30.424Z,3044.00
2022-07-28T11:24:29.893Z,2980.00
2022-07-28T11:25:29.699Z,2972.00
2022-07-28T11:26:29.635Z,2932.00
2022-07-28T11:27:29.607Z,2948.00
2022-07-28T11:28:29.543Z,2892.00
2022-07-28T11:29:29.519Z,2780.00
2022-07-28T11:30:29.483Z,2808.00
2022-07-28T11:31:29.361Z,2640.00
2022-07-28T11:32:33.814Z,2508.00
2022-07-28T11:33:29.267Z,2480.00
2022-07-28T11:34:29.243Z,2208.00
2022-07-28T11:35:29.149Z,2140.00
2022-07-28T11:36:29.082Z,1948.00
2022-07-28T11:37:29.055Z,1700.00
2022-07-28T11:38:28.986Z,1492.00
2022-07-28T11:39:28.985Z,1392.00
2022-07-28T11:40:28.911Z,852.00
2022-07-28T11:41:28.888Z,1048.00
2022-07-28T11:42:28.908Z,776.00
2022-07-28T11:43:36.082Z,748.00
2022-07-28T11:44:28.690Z,752.00
2022-07-28T11:45:37.876Z,748.00
2022-07-28T11:46:28.596Z,760.00
2022-07-28T11:47:28.505Z,884.00
2022-07-28T11:48:28.508Z,1008.00
2022-07-28T11:49:28.554Z,956.00
2022-07-28T11:50:28.350Z,852.00
2022-07-28T11:51:28.324Z,840.00
2022-07-28T11:52:28.236Z,820.00
2022-07-28T11:53:28.235Z,796.00
2022-07-28T11:54:28.142Z,796.00
2022-07-28T11:55:55.776Z,804.00
2022-07-28T11:56:28.051Z,908.00
2022-07-28T11:57:27.958Z,896.00
2022-07-28T11:58:27.890Z,876.00
2022-07-28T11:59:36.699Z,852.00
2022-07-28T12:00:27.808Z,832.00
2022-07-28T12:01:27.773Z,812.00
2022-07-28T12:02:27.739Z,800.00
2022-07-28T12:03:29.071Z,808.00
2022-07-28T12:04:27.669Z,836.00
2022-07-28T12:05:27.522Z,852.00
2022-07-28T12:06:28.987Z,856.00
2022-07-28T12:07:27.404Z,848.00
2022-07-28T12:08:27.341Z,844.00
2022-07-28T12:09:32.834Z,828.00
2022-07-28T12:10:51.814Z,824.00
2022-07-28T12:11:27.155Z,824.00
2022-07-28T12:12:27.125Z,816.00
2022-07-28T12:13:27.066Z,796.00
2022-07-28T12:14:27.039Z,804.00
2022-07-28T12:15:26.944Z,836.00
2022-07-28T12:16:26.946Z,860.00
2022-07-28T12:17:26.855Z,880.00
2022-07-28T12:18:26.752Z,888.00
2022-07-28T12:19:32.713Z,892.00
2022-07-28T12:20:26.668Z,896.00
2022-07-28T12:21:26.605Z,896.00
2022-07-28T12:22:26.580Z,880.00
2022-07-28T12:23:26.482Z,864.00
2022-07-28T12:24:26.419Z,860.00
2022-07-28T12:25:26.394Z,872.00
2022-07-28T12:26:26.373Z,868.00
2022-07-28T12:27:29.171Z,856.00